Time,TemperatureF,DewpointF,PressureIn,WindDirection,WindDirectionDegrees,WindSpeedMPH,WindSpeedGustMPH,Humidity,HourlyPrecipIn,Conditions,Clouds,dailyrainin,SoftwareType,DateUTC
2013-05-05 00:01:00,46.8,35.3,30.08,East,90,0.0,0.0,64,0.00,,CLR,0.00,VWS V14.01,2013-05-05 07:01:00,
2013-05-05 00:06:00,46.7,35.2,30.08,East,90,0.0,0.0,64,0.00,,CLR,0.00,VWS V14.01,2013-05-05 07:06:00,
2013-05-05 00:11:00,46.5,36.2,30.08,East,90,0.0,0.0,67,0.00,,CLR,0.00,VWS V14.01,2013-05-05 07:11:00,
2013-05-05 00:16:00,46.1,35.8,30.08,East,90,0.0,0.0,67,0.00,,CLR,0.00,VWS V14.01,2013-05-05 07:16:00,
2013-05-05 00:22:00,46.1,35.8,30.08,East,90,0.0,0.0,67,0.00,,CLR,0.00,VWS V14.01,2013-05-05 07:22:00,
2013-05-05 00:27:00,45.5,35.6,30.08,East,90,0.0,0.0,68,0.00,,CLR,0.00,VWS V14.01,2013-05-05 07:27:00,
2013-05-05 00:32:00,45.5,35.6,30.08,East,90,0.0,0.0,68,0.00,,CLR,0.00,VWS V14.01,2013-05-05 07:32:00,
2013-05-05 00:37:00,45.2,35.3,30.08,East,90,0.0,0.0,68,0.00,,CLR,0.00,VWS V14.01,2013-05-05 07:37:00,
2013-05-05 00:42:00,45.5,35.6,30.08,East,90,0.0,0.0,68,0.00,,CLR,0.00,VWS V14.01,2013-05-05 07:42:00,
2013-05-05 00:47:00,45.6,35.7,30.08,East,90,0.0,0.0,68,0.00,,CLR,0.00,VWS V14.01,2013-05-05 07:47:00,
2013-05-05 00:52:00,45.6,35.7,30.08,East,90,0.0,0.0,68,0.00,,CLR,0.00,VWS V14.01,2013-05-05 07:52:00,
2013-05-05 00:57:00,45.5,35.6,30.08,East,90,0.0,0.0,68,0.00,,CLR,0.00,VWS V14.01,2013-05-05 07:57:00,
2013-05-05 01:02:00,45.5,35.6,30.08,East,90,0.0,0.0,68,0.00,,CLR,0.00,VWS V14.01,2013-05-05 08:02:00,
2013-05-05 01:07:00,45.2,35.3,30.08,East,90,0.0,0.0,68,0.00,,CLR,0.00,VWS V14.01,2013-05-05 08:07:00,
2013-05-05 01:12:00,45.2,35.3,30.08,East,90,0.0,0.0,68,0.00,,CLR,0.00,VWS V14.01,2013-05-05 08:12:00,
2013-05-05 01:17:00,45.2,35.3,30.08,East,90,0.0,0.0,68,0.00,,CLR,0.00,VWS V14.01,2013-05-05 08:17:00,
2013-05-05 01:22:00,45.1,33.7,30.08,East,90,0.0,0.0,64,0.00,,CLR,0.00,VWS V14.01,2013-05-05 08:22:00,
2013-05-05 01:27:00,45.1,33.7,30.08,East,90,0.0,0.0,64,0.00,,CLR,0.00,VWS V14.01,2013-05-05 08:27:00,
2013-05-05 01:32:00,45.5,34.0,30.07,East,90,0.0,0.0,64,0.00,,CLR,0.00,VWS V14.01,2013-05-05 08:32:00,
2013-05-05 01:37:00,45.5,34.0,30.07,East,90,0.0,0.0,64,0.00,,CLR,0.00,VWS V14.01,2013-05-05 08:37:00,
2013-05-05 01:42:00,46.2,33.5,30.07,East,90,0.0,0.0,61,0.00,,CLR,0.00,VWS V14.01,2013-05-05 08:42:00,
2013-05-05 01:47:00,46.7,33.6,30.07,East,90,0.0,0.0,60,0.00,,CLR,0.00,VWS V14.01,2013-05-05 08:47:00,
2013-05-05 01:53:00,46.7,33.6,30.07,East,90,0.0,0.0,60,0.00,,CLR,0.00,VWS V14.01,2013-05-05 08:53:00,
2013-05-05 01:58:00,46.7,33.6,30.07,East,90,0.0,0.0,60,0.00,,CLR,0.00,VWS V14.01,2013-05-05 08:58:00,
2013-05-05 02:03:00,46.8,33.7,30.07,East,90,0.0,0.0,60,0.00,,CLR,0.00,VWS V14.01,2013-05-05 09:03:00,
2013-05-05 02:08:00,46.8,33.7,30.07,East,90,0.0,0.0,60,0.00,,CLR,0.00,VWS V14.01,2013-05-05 09:08:00,
2013-05-05 02:13:00,47.1,33.9,30.07,East,90,0.0,0.0,60,0.00,,CLR,0.00,VWS V14.01,2013-05-05 09:13:00,
2013-05-05 02:18:00,47.2,34.0,30.07,East,90,0.0,0.0,60,0.00,,CLR,0.00,VWS V14.01,2013-05-05 09:18:00,
2013-05-05 02:23:00,46.5,33.4,30.07,East,90,0.0,0.0,60,0.00,,CLR,0.00,VWS V14.01,2013-05-05 09:23:00,
2013-05-05 02:28:00,45.8,32.7,30.07,East,90,0.0,0.0,60,0.00,,CLR,0.00,VWS V14.01,2013-05-05 09:28:00,
2013-05-05 02:33:00,45.2,32.2,30.07,East,90,0.0,0.0,60,0.00,,CLR,0.00,VWS V14.01,2013-05-05 09:33:00,
2013-05-05 02:38:00,45.2,32.2,30.07,East,90,0.0,0.0,60,0.00,,CLR,0.00,VWS V14.01,2013-05-05 09:38:00,
2013-05-05 02:43:00,45.6,32.5,30.07,East,90,0.0,0.0,60,0.00,,CLR,0.00,VWS V14.01,2013-05-05 09:43:00,
2013-05-05 02:49:00,46.4,33.3,30.07,East,90,0.0,0.0,60,0.00,,CLR,0.00,VWS V14.01,2013-05-05 09:49:00,
2013-05-05 02:54:00,46.4,33.3,30.07,East,90,0.0,0.0,60,0.00,,CLR,0.00,VWS V14.01,2013-05-05 09:54:00,
2013-05-05 02:59:00,46.1,33.0,30.07,East,90,0.0,0.0,60,0.00,,CLR,0.00,VWS V14.01,2013-05-05 09:59:00,
2013-05-05 03:04:00,45.6,32.5,30.06,East,90,0.0,0.0,60,0.00,,CLR,0.00,VWS V14.01,2013-05-05 10:04:00,
2013-05-05 03:09:00,45.3,33.9,30.06,East,90,0.0,0.0,64,0.00,,CLR,0.00,VWS V14.01,2013-05-05 10:09:00,
2013-05-05 03:14:00,45.1,33.7,30.06,East,90,0.0,0.0,64,0.00,,CLR,0.00,VWS V14.01,2013-05-05 10:14:00,
2013-05-05 03:19:00,44.9,33.5,30.06,East,90,0.0,0.0,64,0.00,,CLR,0.00,VWS V14.01,2013-05-05 10:19:00,
2013-05-05 03:24:00,44.9,33.5,30.06,East,90,0.0,0.0,64,0.00,,CLR,0.00,VWS V14.01,2013-05-05 10:24:00,
2013-05-05 03:29:00,44.9,33.5,30.06,East,90,0.0,0.0,64,0.00,,CLR,0.00,VWS V14.01,2013-05-05 10:29:00,
2013-05-05 03:34:00,45.1,33.7,30.06,East,90,0.0,0.0,64,0.00,,CLR,0.00,VWS V14.01,2013-05-05 10:34:00,
2013-05-05 03:39:00,45.3,33.9,30.06,East,90,0.0,0.0,64,0.00,,CLR,0.00,VWS V14.01,2013-05-05 10:39:00,
2013-05-05 03:44:00,45.6,34.1,30.06,East,90,0.0,0.0,64,0.00,,CLR,0.00,VWS V14.01,2013-05-05 10:44:00,
2013-05-05 03:50:00,45.8,34.3,30.05,East,90,0.0,0.0,64,0.00,,CLR,0.00,VWS V14.01,2013-05-05 10:50:00,
2013-05-05 03:55:00,45.6,34.1,30.05,East,90,0.0,0.0,64,0.00,,CLR,0.00,VWS V14.01,2013-05-05 10:55:00,
2013-05-05 04:00:00,45.5,33.7,30.05,East,90,0.0,0.0,63,0.00,,CLR,0.00,VWS V14.01,2013-05-05 11:00:00,
2013-05-05 04:05:00,45.3,33.5,30.05,East,90,0.0,0.0,63,0.00,,CLR,0.00,VWS V14.01,2013-05-05 11:05:00,
2013-05-05 04:10:00,45.2,33.4,30.05,East,90,0.0,0.0,63,0.00,,CLR,0.00,VWS V14.01,2013-05-05 11:10:00,
2013-05-05 04:15:00,45.2,33.4,30.05,East,90,0.0,0.0,63,0.00,,CLR,0.00,VWS V14.01,2013-05-05 11:15:00,
2013-05-05 04:20:00,45.2,33.4,30.05,East,90,0.0,0.0,63,0.00,,CLR,0.00,VWS V14.01,2013-05-05 11:20:00,
2013-05-05 04:25:00,45.1,33.3,30.05,East,90,0.0,0.0,63,0.00,,CLR,0.00,VWS V14.01,2013-05-05 11:25:00,
2013-05-05 04:30:00,45.1,34.0,30.05,East,90,0.0,0.0,65,0.00,,CLR,0.00,VWS V14.01,2013-05-05 11:30:00,
2013-05-05 04:35:00,45.1,34.0,30.05,East,90,0.0,0.0,65,0.00,,CLR,0.00,VWS V14.01,2013-05-05 11:35:00,
2013-05-05 04:40:00,44.9,33.9,30.05,East,90,0.0,0.0,65,0.00,,CLR,0.00,VWS V14.01,2013-05-05 11:40:00,
2013-05-05 04:46:00,44.8,33.8,30.05,East,90,0.0,0.0,65,0.00,,CLR,0.00,VWS V14.01,2013-05-05 11:46:00,
2013-05-05 04:51:00,44.8,34.2,30.05,East,90,0.0,0.0,66,0.00,,CLR,0.00,VWS V14.01,2013-05-05 11:51:00,
2013-05-05 04:56:00,44.8,33.8,30.05,East,90,0.0,0.0,65,0.00,,CLR,0.00,VWS V14.01,2013-05-05 11:56:00,
2013-05-05 05:01:00,44.8,33.8,30.05,East,90,0.0,0.0,65,0.00,,CLR,0.00,VWS V14.01,2013-05-05 12:01:00,
2013-05-05 05:06:00,44.9,33.9,30.05,East,90,0.0,0.0,65,0.00,,CLR,0.00,VWS V14.01,2013-05-05 12:06:00,
2013-05-05 05:11:00,45.2,33.8,30.05,East,90,0.0,0.0,64,0.00,,CLR,0.00,VWS V14.01,2013-05-05 12:11:00,
2013-05-05 05:16:00,45.5,34.0,30.05,East,90,0.0,0.0,64,0.00,,CLR,0.00,VWS V14.01,2013-05-05 12:16:00,
2013-05-05 05:21:00,45.6,34.1,30.05,East,90,0.0,0.0,64,0.00,,CLR,0.00,VWS V14.01,2013-05-05 12:21:00,
2013-05-05 05:26:00,45.8,34.3,30.05,East,90,0.0,0.0,64,0.00,,CLR,0.00,VWS V14.01,2013-05-05 12:26:00,
2013-05-05 05:31:00,45.9,34.4,30.05,East,90,0.0,0.0,64,0.00,,CLR,0.00,VWS V14.01,2013-05-05 12:31:00,
2013-05-05 05:36:00,46.2,33.5,30.05,East,90,0.0,0.0,61,0.00,,CLR,0.00,VWS V14.01,2013-05-05 12:36:00,
2013-05-05 05:42:00,46.7,33.6,30.05,East,90,0.0,0.0,60,0.00,,CLR,0.00,VWS V14.01,2013-05-05 12:42:00,
2013-05-05 05:47:00,46.7,33.6,30.05,East,90,0.0,0.0,60,0.00,,CLR,0.00,VWS V14.01,2013-05-05 12:47:00,
2013-05-05 05:52:00,46.5,33.4,30.05,East,90,0.0,0.0,60,0.00,,CLR,0.00,VWS V14.01,2013-05-05 12:52:00,
2013-05-05 05:57:00,46.5,33.4,30.05,East,90,0.0,0.0,60,0.00,,CLR,0.00,VWS V14.01,2013-05-05 12:57:00,
2013-05-05 06:02:00,45.6,32.5,30.05,East,90,0.0,0.0,60,0.00,,CLR,0.00,VWS V14.01,2013-05-05 13:02:00,
2013-05-05 06:07:00,45.3,32.2,30.05,East,90,0.0,0.0,60,0.00,,CLR,0.00,VWS V14.01,2013-05-05 13:07:00,
2013-05-05 06:12:00,45.2,32.2,30.05,East,90,0.0,0.0,60,0.00,,CLR,0.00,VWS V14.01,2013-05-05 13:12:00,
2013-05-05 06:17:00,45.6,32.5,30.05,East,90,0.0,0.0,60,0.00,,CLR,0.00,VWS V14.01,2013-05-05 13:17:00,
2013-05-05 06:22:00,46.1,33.0,30.04,East,90,0.0,0.0,60,0.00,,CLR,0.00,VWS V14.01,2013-05-05 13:22:00,
2013-05-05 06:27:00,47.4,34.2,30.04,East,90,0.0,0.0,60,0.00,,CLR,0.00,VWS V14.01,2013-05-05 13:27:00,
2013-05-05 06:32:00,48.4,35.2,30.04,East,90,0.0,1.0,60,0.00,,CLR,0.00,VWS V14.01,2013-05-05 13:32:00,
2013-05-05 06:37:00,49.0,35.7,30.04,East,90,0.0,0.0,60,0.00,,CLR,0.00,VWS V14.01,2013-05-05 13:37:00,
2013-05-05 06:42:00,49.9,36.6,30.04,East,90,0.0,0.0,60,0.00,,CLR,0.00,VWS V14.01,2013-05-05 13:42:00,
2013-05-05 06:47:00,51.4,38.0,30.04,East,90,1.0,1.0,60,0.00,,CLR,0.00,VWS V14.01,2013-05-05 13:47:00,
2013-05-05 06:52:00,51.4,38.0,30.04,East,90,1.0,1.0,60,0.00,,CLR,0.00,VWS V14.01,2013-05-05 13:52:00,
2013-05-05 06:58:00,52.7,35.6,30.04,ENE,71,0.0,2.0,52,0.00,,CLR,0.00,VWS V14.01,2013-05-05 13:58:00,
2013-05-05 07:03:00,53.5,36.3,30.04,ENE,71,0.0,1.0,52,0.00,,CLR,0.00,VWS V14.01,2013-05-05 14:03:00,
2013-05-05 07:08:00,54.1,36.9,30.04,ENE,76,1.0,1.0,52,0.00,,CLR,0.00,VWS V14.01,2013-05-05 14:08:00,
2013-05-05 07:13:00,54.6,37.3,30.04,ENE,64,0.0,2.0,52,0.00,,CLR,0.00,VWS V14.01,2013-05-05 14:13:00,
2013-05-05 07:18:00,55.1,37.8,30.05,East,80,0.0,0.0,52,0.00,,CLR,0.00,VWS V14.01,2013-05-05 14:18:00,
2013-05-05 07:23:00,55.8,38.5,30.05,East,80,0.0,0.0,52,0.00,,CLR,0.00,VWS V14.01,2013-05-05 14:23:00,
2013-05-05 07:28:00,56.4,39.0,30.05,East,82,0.0,0.0,52,0.00,,CLR,0.00,VWS V14.01,2013-05-05 14:28:00,
2013-05-05 07:33:00,56.7,36.2,30.04,NE,55,2.0,2.0,46,0.00,,CLR,0.00,VWS V14.01,2013-05-05 14:33:00,
2013-05-05 07:38:00,57.0,36.4,30.04,ENE,75,2.0,2.0,46,0.00,,CLR,0.00,VWS V14.01,2013-05-05 14:38:00,
2013-05-05 07:43:00,57.0,36.4,30.04,ENE,71,2.0,2.0,46,0.00,,CLR,0.00,VWS V14.01,2013-05-05 14:43:00,
2013-05-05 07:49:00,57.6,37.0,30.04,ENE,69,2.0,2.0,46,0.00,,CLR,0.00,VWS V14.01,2013-05-05 14:49:00,
2013-05-05 07:54:00,58.3,37.6,30.04,ENE,68,1.0,1.0,46,0.00,,CLR,0.00,VWS V14.01,2013-05-05 14:54:00,
2013-05-05 07:59:00,58.6,37.9,30.04,ENE,71,1.0,1.0,46,0.00,,CLR,0.00,VWS V14.01,2013-05-05 14:59:00,
2013-05-05 08:04:00,59.0,38.3,30.04,ENE,72,0.0,2.0,46,0.00,,CLR,0.00,VWS V14.01,2013-05-05 15:04:00,
2013-05-05 08:09:00,59.0,38.3,30.04,East,80,1.0,1.0,46,0.00,,CLR,0.00,VWS V14.01,2013-05-05 15:09:00,
2013-05-05 08:14:00,59.0,37.1,30.04,ENE,61,1.0,1.0,44,0.00,,CLR,0.00,VWS V14.01,2013-05-05 15:14:00,
2013-05-05 08:19:00,59.7,37.8,30.04,NE,52,3.0,3.0,44,0.00,,CLR,0.00,VWS V14.01,2013-05-05 15:19:00,
2013-05-05 08:24:00,59.9,36.8,30.04,ENE,66,6.0,6.0,42,0.00,,CLR,0.00,VWS V14.01,2013-05-05 15:24:00,
2013-05-05 08:29:00,60.2,37.0,30.04,East,97,2.0,3.0,42,0.00,,CLR,0.00,VWS V14.01,2013-05-05 15:29:00,
2013-05-05 08:34:00,60.3,37.1,30.03,NE,56,0.0,2.0,42,0.00,,CLR,0.00,VWS V14.01,2013-05-05 15:34:00,
2013-05-05 08:40:00,61.1,37.9,30.03,ENE,78,0.0,5.0,42,0.00,,CLR,0.00,VWS V14.01,2013-05-05 15:40:00,
2013-05-05 08:45:00,61.4,36.9,30.03,ENE,71,6.0,6.0,40,0.00,,CLR,0.00,VWS V14.01,2013-05-05 15:45:00,
2013-05-05 08:50:00,61.7,38.4,30.03,ENE,62,6.0,6.0,42,0.00,,CLR,0.00,VWS V14.01,2013-05-05 15:50:00,
2013-05-05 08:55:00,62.2,37.0,30.03,East,80,1.0,1.0,39,0.00,,CLR,0.00,VWS V14.01,2013-05-05 15:55:00,
2013-05-05 09:00:00,62.3,37.0,30.03,ENE,65,3.0,3.0,39,0.00,,CLR,0.00,VWS V14.01,2013-05-05 16:00:00,
2013-05-05 09:05:00,62.6,37.3,30.02,ENE,72,2.0,6.0,39,0.00,,CLR,0.00,VWS V14.01,2013-05-05 16:05:00,
2013-05-05 09:10:00,63.0,37.7,30.02,ENE,68,1.0,2.0,39,0.00,,CLR,0.00,VWS V14.01,2013-05-05 16:10:00,
2013-05-05 09:15:00,63.6,38.9,30.02,ENE,76,3.0,3.0,40,0.00,,CLR,0.00,VWS V14.01,2013-05-05 16:15:00,
2013-05-05 09:20:00,64.2,38.1,30.02,East,82,1.0,1.0,38,0.00,,CLR,0.00,VWS V14.01,2013-05-05 16:20:00,
2013-05-05 09:25:00,64.5,38.3,30.02,ENE,71,0.0,0.0,38,0.00,,CLR,0.00,VWS V14.01,2013-05-05 16:25:00,
2013-05-05 09:31:00,65.3,39.1,30.02,ENE,69,2.0,3.0,38,0.00,,CLR,0.00,VWS V14.01,2013-05-05 16:31:00,
2013-05-05 09:36:00,65.8,38.8,30.01,ENE,71,2.0,2.0,37,0.00,,CLR,0.00,VWS V14.01,2013-05-05 16:36:00,
2013-05-05 09:41:00,66.0,39.0,30.01,ENE,66,2.0,2.0,37,0.00,,CLR,0.00,VWS V14.01,2013-05-05 16:41:00,
2013-05-05 09:46:00,66.5,37.3,30.01,NE,38,2.0,2.0,34,0.00,,CLR,0.00,VWS V14.01,2013-05-05 16:46:00,
2013-05-05 09:51:00,67.1,35.5,30.01,East,85,5.0,5.0,31,0.00,,CLR,0.00,VWS V14.01,2013-05-05 16:51:00,
2013-05-05 09:56:00,67.3,35.7,30.01,East,90,5.0,5.0,31,0.00,,CLR,0.00,VWS V14.01,2013-05-05 16:56:00,
2013-05-05 10:01:00,68.1,36.3,30.01,ENE,75,0.0,1.0,31,0.00,,CLR,0.00,VWS V14.01,2013-05-05 17:01:00,
2013-05-05 10:06:00,68.4,36.6,30.00,East,83,3.0,3.0,31,0.00,,CLR,0.00,VWS V14.01,2013-05-05 17:06:00,
2013-05-05 10:11:00,68.8,37.0,30.00,ENE,64,1.0,1.0,31,0.00,,CLR,0.00,VWS V14.01,2013-05-05 17:11:00,
2013-05-05 10:16:00,69.3,37.4,30.00,ENE,66,3.0,3.0,31,0.00,,CLR,0.00,VWS V14.01,2013-05-05 17:16:00,
2013-05-05 10:21:00,69.4,37.5,30.00,NE,56,2.0,2.0,31,0.00,,CLR,0.00,VWS V14.01,2013-05-05 17:21:00,
2013-05-05 10:26:00,69.3,37.4,30.00,East,85,3.0,3.0,31,0.00,,CLR,0.00,VWS V14.01,2013-05-05 17:26:00,
2013-05-05 10:32:00,69.4,37.5,30.00,ENE,72,3.0,3.0,31,0.00,,CLR,0.00,VWS V14.01,2013-05-05 17:32:00,
2013-05-05 10:37:00,69.6,36.8,30.00,ENE,65,3.0,3.0,30,0.00,,CLR,0.00,VWS V14.01,2013-05-05 17:37:00,
2013-05-05 10:42:00,69.8,37.0,30.00,East,89,5.0,5.0,30,0.00,,CLR,0.00,VWS V14.01,2013-05-05 17:42:00,
2013-05-05 10:47:00,69.9,39.5,30.00,East,92,0.0,1.0,33,0.00,,CLR,0.00,VWS V14.01,2013-05-05 17:47:00,
2013-05-05 10:52:00,69.9,39.5,30.00,East,88,0.0,0.0,33,0.00,,CLR,0.00,VWS V14.01,2013-05-05 17:52:00,
2013-05-05 10:57:00,70.6,40.1,30.00,SE,136,3.0,5.0,33,0.00,,CLR,0.00,VWS V14.01,2013-05-05 17:57:00,
2013-05-05 11:02:00,70.4,40.0,29.99,ENE,65,0.0,0.0,33,0.00,,CLR,0.00,VWS V14.01,2013-05-05 18:02:00,
2013-05-05 11:07:00,71.4,37.5,29.99,ENE,71,1.0,1.0,29,0.00,,CLR,0.00,VWS V14.01,2013-05-05 18:07:00,
2013-05-05 11:12:00,71.4,37.5,29.99,ENE,73,3.0,3.0,29,0.00,,CLR,0.00,VWS V14.01,2013-05-05 18:12:00,
2013-05-05 11:17:00,71.4,39.2,29.99,ENE,62,0.0,0.0,31,0.00,,CLR,0.00,VWS V14.01,2013-05-05 18:17:00,
2013-05-05 11:22:00,71.4,36.6,29.99,NE,51,0.0,0.0,28,0.00,,CLR,0.00,VWS V14.01,2013-05-05 18:22:00,
2013-05-05 11:28:00,72.3,37.4,29.99,East,93,1.0,1.0,28,0.00,,CLR,0.00,VWS V14.01,2013-05-05 18:28:00,
2013-05-05 11:33:00,71.8,37.0,29.98,East,82,6.0,6.0,28,0.00,,CLR,0.00,VWS V14.01,2013-05-05 18:33:00,
2013-05-05 11:38:00,71.8,37.0,29.98,ENE,64,0.0,0.0,28,0.00,,CLR,0.00,VWS V14.01,2013-05-05 18:38:00,
2013-05-05 11:43:00,72.3,37.4,29.98,East,95,1.0,1.0,28,0.00,,CLR,0.00,VWS V14.01,2013-05-05 18:43:00,
2013-05-05 11:48:00,72.3,37.4,29.98,East,93,1.0,3.0,28,0.00,,CLR,0.00,VWS V14.01,2013-05-05 18:48:00,
2013-05-05 11:53:00,73.5,38.4,29.98,East,80,0.0,0.0,28,0.00,,CLR,0.00,VWS V14.01,2013-05-05 18:53:00,
2013-05-05 11:58:00,73.7,38.6,29.98,East,85,0.0,0.0,28,0.00,,CLR,0.00,VWS V14.01,2013-05-05 18:58:00,
2013-05-05 12:03:00,74.0,38.9,29.97,East,82,5.0,5.0,28,0.00,,CLR,0.00,VWS V14.01,2013-05-05 19:03:00,
2013-05-05 12:08:00,74.0,38.9,29.97,East,88,6.0,6.0,28,0.00,,CLR,0.00,VWS V14.01,2013-05-05 19:08:00,
2013-05-05 12:13:00,74.0,38.9,29.97,East,80,3.0,3.0,28,0.00,,CLR,0.00,VWS V14.01,2013-05-05 19:13:00,
2013-05-05 12:18:00,74.0,38.9,29.96,East,85,1.0,2.0,28,0.00,,CLR,0.00,VWS V14.01,2013-05-05 19:18:00,
2013-05-05 12:24:00,74.3,39.1,29.96,East,83,1.0,2.0,28,0.00,,CLR,0.00,VWS V14.01,2013-05-05 19:24:00,
2013-05-05 12:29:00,74.9,39.6,29.96,ENE,73,0.0,0.0,28,0.00,,CLR,0.00,VWS V14.01,2013-05-05 19:29:00,
2013-05-05 12:34:00,74.9,38.7,29.96,NNE,25,0.0,0.0,27,0.00,,CLR,0.00,VWS V14.01,2013-05-05 19:34:00,
2013-05-05 12:39:00,75.6,39.3,29.96,East,79,0.0,0.0,27,0.00,,CLR,0.00,VWS V14.01,2013-05-05 19:39:00,
2013-05-05 12:44:00,75.4,39.1,29.96,ENE,78,1.0,1.0,27,0.00,,CLR,0.00,VWS V14.01,2013-05-05 19:44:00,
2013-05-05 12:49:00,75.4,39.1,29.95,NNE,28,1.0,1.0,27,0.00,,CLR,0.00,VWS V14.01,2013-05-05 19:49:00,
2013-05-05 12:54:00,75.4,39.1,29.95,NE,52,0.0,0.0,27,0.00,,CLR,0.00,VWS V14.01,2013-05-05 19:54:00,
2013-05-05 12:59:00,75.6,38.3,29.95,ESE,110,0.0,0.0,26,0.00,,CLR,0.00,VWS V14.01,2013-05-05 19:59:00,
2013-05-05 13:04:00,75.7,37.4,29.94,ESE,107,1.0,1.0,25,0.00,,CLR,0.00,VWS V14.01,2013-05-05 20:04:00,
2013-05-05 13:09:00,75.9,37.6,29.94,ENE,69,0.0,0.0,25,0.00,,CLR,0.00,VWS V14.01,2013-05-05 20:09:00,
2013-05-05 13:15:00,75.9,37.6,29.94,NE,40,0.0,0.0,25,0.00,,CLR,0.00,VWS V14.01,2013-05-05 20:15:00,
2013-05-05 13:20:00,75.9,37.6,29.94,East,100,0.0,0.0,25,0.00,,CLR,0.00,VWS V14.01,2013-05-05 20:20:00,
2013-05-05 13:25:00,75.9,40.5,29.94,East,100,1.0,2.0,28,0.00,,CLR,0.00,VWS V14.01,2013-05-05 20:25:00,
2013-05-05 13:30:00,75.9,40.5,29.94,NE,47,1.0,1.0,28,0.00,,CLR,0.00,VWS V14.01,2013-05-05 20:30:00,
2013-05-05 13:35:00,77.1,41.5,29.93,East,90,2.0,3.0,28,0.00,,CLR,0.00,VWS V14.01,2013-05-05 20:35:00,
2013-05-05 13:40:00,76.8,39.3,29.93,ESE,106,2.0,2.0,26,0.00,,CLR,0.00,VWS V14.01,2013-05-05 20:40:00,
2013-05-05 13:45:00,76.6,39.2,29.93,East,80,0.0,0.0,26,0.00,,CLR,0.00,VWS V14.01,2013-05-05 20:45:00,
2013-05-05 13:50:00,76.8,39.3,29.93,SE,130,1.0,1.0,26,0.00,,CLR,0.00,VWS V14.01,2013-05-05 20:50:00,
2013-05-05 13:55:00,76.8,39.3,29.93,ENE,62,0.0,0.0,26,0.00,,CLR,0.00,VWS V14.01,2013-05-05 20:55:00,
2013-05-05 14:00:00,77.1,39.6,29.93,East,90,0.0,0.0,26,0.00,,CLR,0.00,VWS V14.01,2013-05-05 21:00:00,
2013-05-05 14:05:00,77.7,41.1,29.93,East,83,2.0,2.0,27,0.00,,CLR,0.00,VWS V14.01,2013-05-05 21:05:00,
2013-05-05 14:11:00,78.0,41.3,29.93,NE,56,0.0,2.0,27,0.00,,CLR,0.00,VWS V14.01,2013-05-05 21:11:00,
2013-05-05 14:16:00,78.0,41.3,29.93,ESE,104,5.0,5.0,27,0.00,,CLR,0.00,VWS V14.01,2013-05-05 21:16:00,
2013-05-05 14:21:00,77.7,41.1,29.92,ENE,78,5.0,5.0,27,0.00,,CLR,0.00,VWS V14.01,2013-05-05 21:21:00,
2013-05-05 14:26:00,77.7,41.1,29.92,ENE,66,0.0,0.0,27,0.00,,CLR,0.00,VWS V14.01,2013-05-05 21:26:00,
2013-05-05 14:31:00,77.3,40.8,29.92,ENE,71,0.0,0.0,27,0.00,,CLR,0.00,VWS V14.01,2013-05-05 21:31:00,
2013-05-05 14:36:00,77.5,40.9,29.92,ENE,71,0.0,0.0,27,0.00,,CLR,0.00,VWS V14.01,2013-05-05 21:36:00,
2013-05-05 14:41:00,77.5,40.9,29.92,ENE,71,0.0,0.0,27,0.00,,CLR,0.00,VWS V14.01,2013-05-05 21:41:00,
2013-05-05 14:46:00,78.4,41.7,29.92,NNE,31,0.0,0.0,27,0.00,,CLR,0.00,VWS V14.01,2013-05-05 21:46:00,
2013-05-05 14:51:00,78.4,41.7,29.91,ENE,73,0.0,0.0,27,0.00,,CLR,0.00,VWS V14.01,2013-05-05 21:51:00,
2013-05-05 14:56:00,78.4,41.7,29.91,ENE,73,0.0,0.0,27,0.00,,CLR,0.00,VWS V14.01,2013-05-05 21:56:00,
2013-05-05 15:02:00,78.7,41.9,29.91,ENE,73,0.0,0.0,27,0.00,,CLR,0.00,VWS V14.01,2013-05-05 22:02:00,
2013-05-05 15:07:00,79.3,42.5,29.91,ESE,109,2.0,2.0,27,0.00,,CLR,0.00,VWS V14.01,2013-05-05 22:07:00,
2013-05-05 15:12:00,79.5,37.4,29.91,NNE,23,1.0,1.0,22,0.00,,CLR,0.00,VWS V14.01,2013-05-05 22:12:00,
2013-05-05 15:17:00,78.9,36.9,29.91,ENE,66,1.0,2.0,22,0.00,,CLR,0.00,VWS V14.01,2013-05-05 22:17:00,
2013-05-05 15:22:00,78.6,35.4,29.90,ENE,65,0.0,0.0,21,0.00,,CLR,0.00,VWS V14.01,2013-05-05 22:22:00,
2013-05-05 15:27:00,78.7,35.5,29.90,ENE,65,0.0,0.0,21,0.00,,CLR,0.00,VWS V14.01,2013-05-05 22:27:00,
2013-05-05 15:32:00,78.9,35.7,29.90,ENE,65,0.0,0.0,21,0.00,,CLR,0.00,VWS V14.01,2013-05-05 22:32:00,
2013-05-05 15:37:00,78.9,35.7,29.90,ENE,65,0.0,0.0,21,0.00,,CLR,0.00,VWS V14.01,2013-05-05 22:37:00,
2013-05-05 15:42:00,78.9,35.7,29.90,SE,127,0.0,0.0,21,0.00,,CLR,0.00,VWS V14.01,2013-05-05 22:42:00,
2013-05-05 15:47:00,79.3,36.0,29.90,East,88,1.0,1.0,21,0.00,,CLR,0.00,VWS V14.01,2013-05-05 22:47:00,
2013-05-05 15:52:00,79.3,36.0,29.90,East,95,0.0,0.0,21,0.00,,CLR,0.00,VWS V14.01,2013-05-05 22:52:00,
2013-05-05 15:57:00,79.3,36.0,29.90,East,95,0.0,0.0,21,0.00,,CLR,0.00,VWS V14.01,2013-05-05 22:57:00,
2013-05-05 16:02:00,79.6,36.3,29.89,NE,55,0.0,0.0,21,0.00,,CLR,0.00,VWS V14.01,2013-05-05 23:02:00,
2013-05-05 16:08:00,79.8,36.4,29.89,NE,40,0.0,0.0,21,0.00,,CLR,0.00,VWS V14.01,2013-05-05 23:08:00,
2013-05-05 16:13:00,80.2,36.8,29.89,ENE,73,1.0,1.0,21,0.00,,CLR,0.00,VWS V14.01,2013-05-05 23:13:00,
2013-05-05 16:18:00,79.6,35.0,29.89,ENE,66,1.0,1.0,20,0.00,,CLR,0.00,VWS V14.01,2013-05-05 23:18:00,
2013-05-05 16:23:00,78.9,34.5,29.89,ENE,65,0.0,1.0,20,0.00,,CLR,0.00,VWS V14.01,2013-05-05 23:23:00,
2013-05-05 16:28:00,78.7,34.3,29.89,ENE,65,0.0,0.0,20,0.00,,CLR,0.00,VWS V14.01,2013-05-05 23:28:00,
2013-05-05 16:33:00,78.6,34.2,29.88,ENE,78,0.0,1.0,20,0.00,,CLR,0.00,VWS V14.01,2013-05-05 23:33:00,
2013-05-05 16:38:00,78.4,34.0,29.88,ENE,78,0.0,0.0,20,0.00,,CLR,0.00,VWS V14.01,2013-05-05 23:38:00,
2013-05-05 16:43:00,78.6,34.2,29.88,ENE,78,0.0,0.0,20,0.00,,CLR,0.00,VWS V14.01,2013-05-05 23:43:00,
2013-05-05 16:48:00,78.6,34.2,29.88,ENE,75,0.0,0.0,20,0.00,,CLR,0.00,VWS V14.01,2013-05-05 23:48:00,
2013-05-05 16:53:00,78.4,34.0,29.88,ENE,75,0.0,1.0,20,0.00,,CLR,0.00,VWS V14.01,2013-05-05 23:53:00,
2013-05-05 16:58:00,78.4,35.3,29.88,ENE,75,0.0,0.0,21,0.00,,CLR,0.00,VWS V14.01,2013-05-05 23:58:00,
2013-05-05 17:03:00,78.0,34.9,29.87,East,93,0.0,2.0,21,0.00,,CLR,0.00,VWS V14.01,2013-05-06 00:03:00,
2013-05-05 17:08:00,77.8,34.8,29.87,East,93,0.0,0.0,21,0.00,,CLR,0.00,VWS V14.01,2013-05-06 00:08:00,
2013-05-05 17:13:00,78.4,35.3,29.87,East,93,0.0,0.0,21,0.00,,CLR,0.00,VWS V14.01,2013-05-06 00:13:00,
2013-05-05 17:19:00,79.1,34.6,29.87,East,93,0.0,0.0,20,0.00,,CLR,0.00,VWS V14.01,2013-05-06 00:19:00,
2013-05-05 17:24:00,79.3,37.2,29.87,East,93,0.0,0.0,22,0.00,,CLR,0.00,VWS V14.01,2013-05-06 00:24:00,
2013-05-05 17:29:00,78.6,34.2,29.87,NE,56,1.0,5.0,20,0.00,,CLR,0.00,VWS V14.01,2013-05-06 00:29:00,
2013-05-05 17:34:00,77.8,33.6,29.87,ENE,64,0.0,1.0,20,0.00,,CLR,0.00,VWS V14.01,2013-05-06 00:34:00,
2013-05-05 17:39:00,77.8,33.6,29.87,NE,40,0.0,1.0,20,0.00,,CLR,0.00,VWS V14.01,2013-05-06 00:39:00,
2013-05-05 17:44:00,77.5,35.7,29.87,ENE,71,0.0,1.0,22,0.00,,CLR,0.00,VWS V14.01,2013-05-06 00:44:00,
2013-05-05 17:49:00,77.3,33.1,29.87,ENE,73,0.0,0.0,20,0.00,,CLR,0.00,VWS V14.01,2013-05-06 00:49:00,
2013-05-05 17:54:00,77.3,33.1,29.87,ENE,73,0.0,2.0,20,0.00,,CLR,0.00,VWS V14.01,2013-05-06 00:54:00,
2013-05-05 17:59:00,77.3,35.5,29.87,ENE,73,0.0,0.0,22,0.00,,CLR,0.00,VWS V14.01,2013-05-06 00:59:00,
2013-05-05 18:04:00,77.0,32.9,29.87,ENE,73,2.0,2.0,20,0.00,,CLR,0.00,VWS V14.01,2013-05-06 01:04:00,
2013-05-05 18:09:00,76.6,33.8,29.87,ENE,68,0.0,0.0,21,0.00,,CLR,0.00,VWS V14.01,2013-05-06 01:09:00,
2013-05-05 18:14:00,76.6,36.1,29.87,ENE,68,0.0,0.0,23,0.00,,CLR,0.00,VWS V14.01,2013-05-06 01:14:00,
2013-05-05 18:19:00,76.6,36.1,29.86,ENE,68,0.0,0.0,23,0.00,,CLR,0.00,VWS V14.01,2013-05-06 01:19:00,
2013-05-05 18:24:00,76.8,34.0,29.86,ENE,68,0.0,0.0,21,0.00,,CLR,0.00,VWS V14.01,2013-05-06 01:24:00,
2013-05-05 18:29:00,76.4,34.8,29.86,ENE,76,0.0,0.0,22,0.00,,CLR,0.00,VWS V14.01,2013-05-06 01:29:00,
2013-05-05 18:34:00,76.1,34.5,29.86,ENE,76,0.0,0.0,22,0.00,,CLR,0.00,VWS V14.01,2013-05-06 01:34:00,
2013-05-05 18:39:00,75.7,35.3,29.86,ENE,76,0.0,0.0,23,0.00,,CLR,0.00,VWS V14.01,2013-05-06 01:39:00,
2013-05-05 18:45:00,75.4,35.1,29.86,East,88,0.0,0.0,23,0.00,,CLR,0.00,VWS V14.01,2013-05-06 01:45:00,
2013-05-05 18:50:00,75.4,35.1,29.86,East,88,0.0,0.0,23,0.00,,CLR,0.00,VWS V14.01,2013-05-06 01:50:00,
2013-05-05 18:55:00,74.7,34.5,29.86,East,88,0.0,0.0,23,0.00,,CLR,0.00,VWS V14.01,2013-05-06 01:55:00,
2013-05-05 19:00:00,74.3,34.1,29.86,ESE,107,0.0,0.0,23,0.00,,CLR,0.00,VWS V14.01,2013-05-06 02:00:00,
2013-05-05 19:05:00,73.8,33.7,29.86,ESE,107,0.0,0.0,23,0.00,,CLR,0.00,VWS V14.01,2013-05-06 02:05:00,
2013-05-05 19:10:00,73.8,33.7,29.86,ESE,107,0.0,0.0,23,0.00,,CLR,0.00,VWS V14.01,2013-05-06 02:10:00,
2013-05-05 19:15:00,73.1,33.1,29.86,ESE,107,0.0,0.0,23,0.00,,CLR,0.00,VWS V14.01,2013-05-06 02:15:00,
2013-05-05 19:20:00,73.1,33.1,29.86,ESE,107,0.0,0.0,23,0.00,,CLR,0.00,VWS V14.01,2013-05-06 02:20:00,
2013-05-05 19:25:00,71.8,32.0,29.86,ESE,107,0.0,0.0,23,0.00,,CLR,0.00,VWS V14.01,2013-05-06 02:25:00,
2013-05-05 19:30:00,71.8,32.0,29.86,ESE,107,0.0,0.0,23,0.00,,CLR,0.00,VWS V14.01,2013-05-06 02:30:00,
2013-05-05 19:35:00,71.3,31.6,29.86,ESE,107,0.0,0.0,23,0.00,,CLR,0.00,VWS V14.01,2013-05-06 02:35:00,
2013-05-05 19:41:00,71.3,31.6,29.86,ESE,107,0.0,0.0,23,0.00,,CLR,0.00,VWS V14.01,2013-05-06 02:41:00,
2013-05-05 19:46:00,70.1,33.7,29.86,ESE,107,0.0,0.0,26,0.00,,CLR,0.00,VWS V14.01,2013-05-06 02:46:00,
2013-05-05 19:51:00,69.4,33.1,29.86,ESE,107,0.0,0.0,26,0.00,,CLR,0.00,VWS V14.01,2013-05-06 02:51:00,
2013-05-05 19:56:00,69.1,32.8,29.86,ESE,107,0.0,0.0,26,0.00,,CLR,0.00,VWS V14.01,2013-05-06 02:56:00,
2013-05-05 20:01:00,68.1,32.0,29.86,ESE,107,0.0,0.0,26,0.00,,CLR,0.00,VWS V14.01,2013-05-06 03:01:00,
2013-05-05 20:06:00,67.3,31.3,29.86,ESE,107,0.0,0.0,26,0.00,,CLR,0.00,VWS V14.01,2013-05-06 03:06:00,
2013-05-05 20:11:00,66.3,36.4,29.86,ESE,107,0.0,0.0,33,0.00,,CLR,0.00,VWS V14.01,2013-05-06 03:11:00,
2013-05-05 20:16:00,65.2,35.4,29.86,ESE,107,0.0,0.0,33,0.00,,CLR,0.00,VWS V14.01,2013-05-06 03:16:00,
2013-05-05 20:21:00,64.9,35.1,29.87,ESE,107,0.0,0.0,33,0.00,,CLR,0.00,VWS V14.01,2013-05-06 03:21:00,
2013-05-05 20:26:00,64.4,35.5,29.87,ESE,107,0.0,0.0,34,0.00,,CLR,0.00,VWS V14.01,2013-05-06 03:26:00,
2013-05-05 20:31:00,63.9,35.0,29.87,ESE,107,0.0,0.0,34,0.00,,CLR,0.00,VWS V14.01,2013-05-06 03:31:00,
2013-05-05 20:36:00,63.6,34.7,29.87,ESE,107,0.0,0.0,34,0.00,,CLR,0.00,VWS V14.01,2013-05-06 03:36:00,
2013-05-05 20:41:00,63.4,34.6,29.87,ESE,107,0.0,0.0,34,0.00,,CLR,0.00,VWS V14.01,2013-05-06 03:41:00,
2013-05-05 20:47:00,63.3,34.5,29.87,ESE,107,0.0,0.0,34,0.00,,CLR,0.00,VWS V14.01,2013-05-06 03:47:00,
2013-05-05 20:52:00,62.3,33.6,29.88,ESE,107,0.0,0.0,34,0.00,,CLR,0.00,VWS V14.01,2013-05-06 03:52:00,
2013-05-05 20:57:00,61.9,33.2,29.88,ESE,107,0.0,0.0,34,0.00,,CLR,0.00,VWS V14.01,2013-05-06 03:57:00,
2013-05-05 21:01:00,61.4,32.8,29.88,ESE,107,0.0,0.0,34,0.00,,CLR,0.00,VWS V14.01,2013-05-06 04:01:00,
2013-05-05 21:03:00,60.9,32.4,29.88,ESE,107,0.0,0.0,34,0.00,,CLR,0.00,VWS V14.01,2013-05-06 04:03:00,
2013-05-05 21:08:00,60.8,32.3,29.88,ESE,107,0.0,0.0,34,0.00,,CLR,0.00,VWS V14.01,2013-05-06 04:08:00,
2013-05-05 21:13:00,59.6,31.2,29.88,ESE,107,0.0,0.0,34,0.00,,CLR,0.00,VWS V14.01,2013-05-06 04:13:00,
2013-05-05 21:18:00,59.1,30.8,29.88,ESE,107,0.0,0.0,34,0.00,,CLR,0.00,VWS V14.01,2013-05-06 04:18:00,
2013-05-05 21:23:00,59.0,38.8,29.88,ESE,107,0.0,0.0,47,0.00,,CLR,0.00,VWS V14.01,2013-05-06 04:23:00,
2013-05-05 21:28:00,58.2,38.1,29.88,ESE,107,0.0,0.0,47,0.00,,CLR,0.00,VWS V14.01,2013-05-06 04:28:00,
2013-05-05 21:33:00,57.5,37.5,29.88,ESE,107,0.0,0.0,47,0.00,,CLR,0.00,VWS V14.01,2013-05-06 04:33:00,
2013-05-05 21:38:00,57.0,37.0,29.88,ESE,107,0.0,0.0,47,0.00,,CLR,0.00,VWS V14.01,2013-05-06 04:38:00,
2013-05-05 21:43:00,56.0,36.1,29.88,ESE,107,0.0,0.0,47,0.00,,CLR,0.00,VWS V14.01,2013-05-06 04:43:00,
2013-05-05 21:49:00,55.4,35.5,29.88,ESE,107,0.0,0.0,47,0.00,,CLR,0.00,VWS V14.01,2013-05-06 04:49:00,
2013-05-05 21:54:00,55.2,35.3,29.88,ESE,107,0.0,0.0,47,0.00,,CLR,0.00,VWS V14.01,2013-05-06 04:54:00,
2013-05-05 21:59:00,54.3,34.5,29.88,ESE,107,0.0,0.0,47,0.00,,CLR,0.00,VWS V14.01,2013-05-06 04:59:00,
2013-05-05 22:04:00,54.2,34.4,29.88,ESE,107,0.0,0.0,47,0.00,,CLR,0.00,VWS V14.01,2013-05-06 05:04:00,
2013-05-05 22:09:00,53.8,34.1,29.88,ESE,107,0.0,0.0,47,0.00,,CLR,0.00,VWS V14.01,2013-05-06 05:09:00,
2013-05-05 22:14:00,53.6,33.9,29.88,ESE,107,0.0,0.0,47,0.00,,CLR,0.00,VWS V14.01,2013-05-06 05:14:00,
2013-05-05 22:19:00,53.5,33.8,29.89,ESE,107,0.0,0.0,47,0.00,,CLR,0.00,VWS V14.01,2013-05-06 05:19:00,
2013-05-05 22:24:00,53.3,33.6,29.89,ESE,107,0.0,0.0,47,0.00,,CLR,0.00,VWS V14.01,2013-05-06 05:24:00,
2013-05-05 22:29:00,53.0,33.3,29.89,ESE,107,0.0,0.0,47,0.00,,CLR,0.00,VWS V14.01,2013-05-06 05:29:00,
2013-05-05 22:34:00,52.7,37.9,29.89,ESE,107,0.0,0.0,57,0.00,,CLR,0.00,VWS V14.01,2013-05-06 05:34:00,
2013-05-05 22:40:00,52.6,37.8,29.89,ESE,107,0.0,0.0,57,0.00,,CLR,0.00,VWS V14.01,2013-05-06 05:40:00,
2013-05-05 22:45:00,51.8,37.1,29.89,ESE,107,0.0,0.0,57,0.00,,CLR,0.00,VWS V14.01,2013-05-06 05:45:00,
2013-05-05 22:50:00,51.5,36.8,29.89,ESE,107,0.0,0.0,57,0.00,,CLR,0.00,VWS V14.01,2013-05-06 05:50:00,
2013-05-05 22:55:00,51.4,36.7,29.89,ESE,107,0.0,0.0,57,0.00,,CLR,0.00,VWS V14.01,2013-05-06 05:55:00,
2013-05-05 23:00:00,51.2,37.0,29.89,ESE,107,0.0,0.0,58,0.00,,CLR,0.00,VWS V14.01,2013-05-06 06:00:00,
2013-05-05 23:05:00,51.4,37.1,29.89,ESE,107,0.0,0.0,58,0.00,,CLR,0.00,VWS V14.01,2013-05-06 06:05:00,
2013-05-05 23:10:00,51.4,37.1,29.89,ESE,107,0.0,0.0,58,0.00,,CLR,0.00,VWS V14.01,2013-05-06 06:10:00,
2013-05-05 23:15:00,51.8,37.5,29.89,ESE,107,0.0,0.0,58,0.00,,CLR,0.00,VWS V14.01,2013-05-06 06:15:00,
2013-05-05 23:20:00,51.8,37.5,29.89,ESE,107,0.0,0.0,58,0.00,,CLR,0.00,VWS V14.01,2013-05-06 06:20:00,
2013-05-05 23:25:00,51.7,37.4,29.89,ESE,107,0.0,0.0,58,0.00,,CLR,0.00,VWS V14.01,2013-05-06 06:25:00,
2013-05-05 23:31:00,51.2,37.4,29.89,ESE,107,0.0,0.0,59,0.00,,CLR,0.00,VWS V14.01,2013-05-06 06:31:00,
2013-05-05 23:36:00,51.1,37.7,29.90,ESE,107,0.0,0.0,60,0.00,,CLR,0.00,VWS V14.01,2013-05-06 06:36:00,
2013-05-05 23:41:00,50.9,37.5,29.90,ESE,107,0.0,0.0,60,0.00,,CLR,0.00,VWS V14.01,2013-05-06 06:41:00,
2013-05-05 23:46:00,50.9,37.5,29.90,ESE,107,0.0,0.0,60,0.00,,CLR,0.00,VWS V14.01,2013-05-06 06:46:00,
2013-05-05 23:51:00,50.2,36.9,29.90,ESE,107,0.0,0.0,60,0.00,,CLR,0.00,VWS V14.01,2013-05-06 06:51:00,
2013-05-05 23:56:00,49.9,36.6,29.90,ESE,107,0.0,0.0,60,0.00,,CLR,0.00,VWS V14.01,2013-05-06 06:56:00,